sensor_id;sensor_type;location;lat;lon;timestamp;P1;durP1;ratioP1;P2;durP2;ratioP2
29236;SDS011;16266;50.866;4.398;2024-03-29T00:00:38;15.82;;;15.32;;
29236;SDS011;16266;50.866;4.398;2024-03-29T00:03:04;17.45;;;16.58;;
29236;SDS011;16266;50.866;4.398;2024-03-29T00:05:31;16.83;;;16.23;;
29236;SDS011;16266;50.866;4.398;2024-03-29T00:07:58;16.83;;;16.23;;
29236;SDS011;16266;50.866;4.398;2024-03-29T00:10:24;16.65;;;16.05;;
29236;SDS011;16266;50.866;4.398;2024-03-29T00:12:49;14.48;;;13.98;;
29236;SDS011;16266;50.866;4.398;2024-03-29T00:15:15;17.80;;;17.10;;
29236;SDS011;16266;50.866;4.398;2024-03-29T00:17:41;16.92;;;16.33;;
29236;SDS011;16266;50.866;4.398;2024-03-29T00:20:06;15.27;;;14.77;;
29236;SDS011;16266;50.866;4.398;2024-03-29T00:22:33;16.17;;;15.52;;
29236;SDS011;16266;50.866;4.398;2024-03-29T00:24:59;15.07;;;14.57;;
29236;SDS011;16266;50.866;4.398;2024-03-29T00:27:25;16.58;;;15.98;;
29236;SDS011;16266;50.866;4.398;2024-03-29T00:29:53;14.50;;;14.00;;
29236;SDS011;16266;50.866;4.398;2024-03-29T00:32:19;14.95;;;14.45;;
29236;SDS011;16266;50.866;4.398;2024-03-29T00:34:45;14.50;;;14.00;;
29236;SDS011;16266;50.866;4.398;2024-03-29T00:37:11;17.58;;;17.00;;
29236;SDS011;16266;50.866;4.398;2024-03-29T00:39:37;16.35;;;15.85;;
29236;SDS011;16266;50.866;4.398;2024-03-29T00:42:03;15.63;;;15.13;;
29236;SDS011;16266;50.866;4.398;2024-03-29T00:44:31;15.18;;;14.57;;
29236;SDS011;16266;50.866;4.398;2024-03-29T00:46:57;15.50;;;15.00;;
29236;SDS011;16266;50.866;4.398;2024-03-29T00:49:23;16.85;;;16.17;;
29236;SDS011;16266;50.866;4.398;2024-03-29T00:51:48;17.90;;;17.20;;
29236;SDS011;16266;50.866;4.398;2024-03-29T00:54:14;17.45;;;16.85;;
29236;SDS011;16266;50.866;4.398;2024-03-29T00:56:40;16.63;;;16.13;;
29236;SDS011;16266;50.866;4.398;2024-03-29T00:59:05;17.25;;;16.65;;
29236;SDS011;16266;50.866;4.398;2024-03-29T01:01:31;17.30;;;16.70;;
29236;SDS011;16266;50.866;4.398;2024-03-29T01:03:57;17.73;;;16.60;;
29236;SDS011;16266;50.866;4.398;2024-03-29T01:06:23;17.05;;;16.50;;
29236;SDS011;16266;50.866;4.398;2024-03-29T01:08:48;15.65;;;15.15;;
29236;SDS011;16266;50.866;4.398;2024-03-29T01:11:14;15.52;;;15.02;;
29236;SDS011;16266;50.866;4.398;2024-03-29T01:13:40;16.33;;;15.73;;
29236;SDS011;16266;50.866;4.398;2024-03-29T01:16:06;14.85;;;14.35;;
29236;SDS011;16266;50.866;4.398;2024-03-29T01:18:32;16.23;;;15.73;;
29236;SDS011;16266;50.866;4.398;2024-03-29T01:20:58;15.88;;;15.38;;
29236;SDS011;16266;50.866;4.398;2024-03-29T01:23:24;16.48;;;15.77;;
29236;SDS011;16266;50.866;4.398;2024-03-29T01:25:50;16.58;;;16.00;;
29236;SDS011;16266;50.866;4.398;2024-03-29T01:28:15;17.98;;;17.23;;
29236;SDS011;16266;50.866;4.398;2024-03-29T01:30:41;16.92;;;16.38;;
29236;SDS011;16266;50.866;4.398;2024-03-29T01:33:07;18.23;;;17.58;;
29236;SDS011;16266;50.866;4.398;2024-03-29T01:35:33;17.02;;;16.42;;
29236;SDS011;16266;50.866;4.398;2024-03-29T01:37:58;15.93;;;15.43;;
29236;SDS011;16266;50.866;4.398;2024-03-29T01:40:24;15.00;;;14.50;;
29236;SDS011;16266;50.866;4.398;2024-03-29T01:42:53;15.32;;;14.82;;
29236;SDS011;16266;50.866;4.398;2024-03-29T01:45:19;15.98;;;15.48;;
29236;SDS011;16266;50.866;4.398;2024-03-29T01:47:45;15.23;;;14.73;;
29236;SDS011;16266;50.866;4.398;2024-03-29T01:50:11;16.98;;;16.42;;
29236;SDS011;16266;50.866;4.398;2024-03-29T01:52:37;18.42;;;17.73;;
29236;SDS011;16266;50.866;4.398;2024-03-29T01:55:04;18.63;;;18.02;;
29236;SDS011;16266;50.866;4.398;2024-03-29T01:57:30;19.15;;;18.55;;
29236;SDS011;16266;50.866;4.398;2024-03-29T01:59:56;19.38;;;18.67;;
29236;SDS011;16266;50.866;4.398;2024-03-29T02:02:22;18.35;;;17.75;;
29236;SDS011;16266;50.866;4.398;2024-03-29T02:04:49;18.90;;;18.30;;
29236;SDS011;16266;50.866;4.398;2024-03-29T02:07:14;20.25;;;19.58;;
29236;SDS011;16266;50.866;4.398;2024-03-29T02:09:41;21.13;;;20.40;;
29236;SDS011;16266;50.866;4.398;2024-03-29T02:12:07;26.80;;;25.88;;
29236;SDS011;16266;50.866;4.398;2024-03-29T02:14:32;33.10;;;32.00;;
29236;SDS011;16266;50.866;4.398;2024-03-29T02:16:58;40.45;;;38.55;;
29236;SDS011;16266;50.866;4.398;2024-03-29T02:19:24;72.18;;;69.55;;
29236;SDS011;16266;50.866;4.398;2024-03-29T02:21:50;54.85;;;52.88;;
29236;SDS011;16266;50.866;4.398;2024-03-29T02:24:18;25.65;;;24.83;;
29236;SDS011;16266;50.866;4.398;2024-03-29T02:26:44;28.25;;;27.25;;
29236;SDS011;16266;50.866;4.398;2024-03-29T02:29:10;49.70;;;47.88;;
29236;SDS011;16266;50.866;4.398;2024-03-29T02:31:36;95.38;;;91.82;;
29236;SDS011;16266;50.866;4.398;2024-03-29T02:34:02;117.45;;;113.00;;
29236;SDS011;16266;50.866;4.398;2024-03-29T02:36:28;29.85;;;28.85;;
29236;SDS011;16266;50.866;4.398;2024-03-29T02:38:54;46.72;;;44.97;;
29236;SDS011;16266;50.866;4.398;2024-03-29T02:41:21;87.10;;;83.85;;
29236;SDS011;16266;50.866;4.398;2024-03-29T02:43:47;46.70;;;45.05;;
29236;SDS011;16266;50.866;4.398;2024-03-29T02:46:13;69.57;;;66.97;;
29236;SDS011;16266;50.866;4.398;2024-03-29T02:48:38;63.97;;;61.42;;
29236;SDS011;16266;50.866;4.398;2024-03-29T02:51:04;49.80;;;48.00;;
29236;SDS011;16266;50.866;4.398;2024-03-29T02:53:30;1999.90;;;999.90;;
29236;SDS011;16266;50.866;4.398;2024-03-29T02:55:56;47.20;;;45.53;;
29236;SDS011;16266;50.866;4.398;2024-03-29T02:58:21;1513.10;;;762.63;;
29236;SDS011;16266;50.866;4.398;2024-03-29T03:00:47;55.17;;;53.20;;
29236;SDS011;16266;50.866;4.398;2024-03-29T03:03:16;52.63;;;50.72;;
29236;SDS011;16266;50.866;4.398;2024-03-29T03:05:42;65.45;;;63.00;;
29236;SDS011;16266;50.866;4.398;2024-03-29T03:08:07;1999.90;;;999.90;;
29236;SDS011;16266;50.866;4.398;2024-03-29T03:10:51;1999.90;;;999.90;;
29236;SDS011;16266;50.866;4.398;2024-03-29T03:13:27;1999.90;;;999.90;;
29236;SDS011;16266;50.866;4.398;2024-03-29T03:15:53;81.40;;;78.35;;
29236;SDS011;16266;50.866;4.398;2024-03-29T03:18:19;1999.90;;;999.90;;
29236;SDS011;16266;50.866;4.398;2024-03-29T03:20:55;1999.90;;;999.90;;
29236;SDS011;16266;50.866;4.398;2024-03-29T03:23:23;1999.90;;;999.90;;
29236;SDS011;16266;50.866;4.398;2024-03-29T03:25:59;1999.90;;;999.90;;
29236;SDS011;16266;50.866;4.398;2024-03-29T03:28:28;1999.90;;;999.90;;
29236;SDS011;16266;50.866;4.398;2024-03-29T03:30:53;1999.90;;;999.90;;
29236;SDS011;16266;50.866;4.398;2024-03-29T03:33:19;1999.90;;;999.90;;
29236;SDS011;16266;50.866;4.398;2024-03-29T03:35:45;1999.90;;;999.90;;
29236;SDS011;16266;50.866;4.398;2024-03-29T03:38:12;1999.90;;;999.90;;
29236;SDS011;16266;50.866;4.398;2024-03-29T03:40:38;1999.90;;;999.90;;
29236;SDS011;16266;50.866;4.398;2024-03-29T03:43:04;1999.90;;;999.90;;
29236;SDS011;16266;50.866;4.398;2024-03-29T03:45:37;1999.90;;;999.90;;
29236;SDS011;16266;50.866;4.398;2024-03-29T03:48:04;1999.90;;;999.90;;
29236;SDS011;16266;50.866;4.398;2024-03-29T03:50:31;1999.90;;;999.90;;
29236;SDS011;16266;50.866;4.398;2024-03-29T03:52:57;1999.90;;;999.90;;
29236;SDS011;16266;50.866;4.398;2024-03-29T03:55:23;1999.90;;;999.90;;
29236;SDS011;16266;50.866;4.398;2024-03-29T03:57:49;1999.90;;;999.90;;
29236;SDS011;16266;50.866;4.398;2024-03-29T04:00:15;1999.90;;;999.90;;
29236;SDS011;16266;50.866;4.398;2024-03-29T04:02:42;1999.90;;;999.90;;
29236;SDS011;16266;50.866;4.398;2024-03-29T04:05:13;1999.90;;;999.90;;
29236;SDS011;16266;50.866;4.398;2024-03-29T04:07:39;1999.90;;;999.90;;
29236;SDS011;16266;50.866;4.398;2024-03-29T04:10:04;1999.90;;;999.90;;
29236;SDS011;16266;50.866;4.398;2024-03-29T04:12:30;1999.90;;;999.90;;
29236;SDS011;16266;50.866;4.398;2024-03-29T04:14:56;1999.90;;;999.90;;
29236;SDS011;16266;50.866;4.398;2024-03-29T04:17:25;1999.90;;;999.90;;
29236;SDS011;16266;50.866;4.398;2024-03-29T04:19:50;1999.90;;;999.90;;
29236;SDS011;16266;50.866;4.398;2024-03-29T04:22:16;1999.90;;;999.90;;
29236;SDS011;16266;50.866;4.398;2024-03-29T04:24:42;1999.90;;;999.90;;
29236;SDS011;16266;50.866;4.398;2024-03-29T04:27:07;1999.90;;;999.90;;
29236;SDS011;16266;50.866;4.398;2024-03-29T04:29:33;1999.90;;;999.90;;
29236;SDS011;16266;50.866;4.398;2024-03-29T04:31:58;1999.90;;;999.90;;
29236;SDS011;16266;50.866;4.398;2024-03-29T04:34:24;1999.90;;;999.90;;
29236;SDS011;16266;50.866;4.398;2024-03-29T04:36:50;1999.90;;;999.90;;
29236;SDS011;16266;50.866;4.398;2024-03-29T04:39:16;1999.90;;;999.90;;
29236;SDS011;16266;50.866;4.398;2024-03-29T04:41:41;1999.90;;;999.90;;
29236;SDS011;16266;50.866;4.398;2024-03-29T04:44:07;1999.90;;;999.90;;
29236;SDS011;16266;50.866;4.398;2024-03-29T04:46:33;1999.90;;;999.90;;
29236;SDS011;16266;50.866;4.398;2024-03-29T04:48:59;1999.90;;;999.90;;
29236;SDS011;16266;50.866;4.398;2024-03-29T04:51:25;1999.90;;;999.90;;
29236;SDS011;16266;50.866;4.398;2024-03-29T04:53:51;1999.90;;;999.90;;
29236;SDS011;16266;50.866;4.398;2024-03-29T04:56:16;1999.90;;;999.90;;
29236;SDS011;16266;50.866;4.398;2024-03-29T04:58:42;1999.90;;;999.90;;
29236;SDS011;16266;50.866;4.398;2024-03-29T05:01:08;1999.90;;;999.90;;
29236;SDS011;16266;50.866;4.398;2024-03-29T05:03:33;1999.90;;;999.90;;
29236;SDS011;16266;50.866;4.398;2024-03-29T05:06:00;1999.90;;;999.90;;
29236;SDS011;16266;50.866;4.398;2024-03-29T05:08:25;1999.90;;;999.90;;
29236;SDS011;16266;50.866;4.398;2024-03-29T05:10:51;1999.90;;;999.90;;
29236;SDS011;16266;50.866;4.398;2024-03-29T05:13:17;1999.90;;;999.90;;
29236;SDS011;16266;50.866;4.398;2024-03-29T05:15:49;1999.90;;;999.90;;
29236;SDS011;16266;50.866;4.398;2024-03-29T05:18:14;1999.90;;;999.90;;
29236;SDS011;16266;50.866;4.398;2024-03-29T05:20:40;1999.90;;;999.90;;
29236;SDS011;16266;50.866;4.398;2024-03-29T05:23:12;1999.90;;;999.90;;
29236;SDS011;16266;50.866;4.398;2024-03-29T05:25:39;1999.90;;;999.90;;
29236;SDS011;16266;50.866;4.398;2024-03-29T05:28:05;1999.90;;;999.90;;
29236;SDS011;16266;50.866;4.398;2024-03-29T05:30:32;1999.90;;;999.90;;
29236;SDS011;16266;50.866;4.398;2024-03-29T05:32:59;1999.90;;;999.90;;
29236;SDS011;16266;50.866;4.398;2024-03-29T05:35:25;1999.90;;;999.90;;
29236;SDS011;16266;50.866;4.398;2024-03-29T05:37:51;1999.90;;;999.90;;
29236;SDS011;16266;50.866;4.398;2024-03-29T05:40:18;1999.90;;;999.90;;
29236;SDS011;16266;50.866;4.398;2024-03-29T05:42:44;1999.90;;;999.90;;
29236;SDS011;16266;50.866;4.398;2024-03-29T05:45:22;1999.90;;;999.90;;
29236;SDS011;16266;50.866;4.398;2024-03-29T05:47:50;1999.90;;;999.90;;
29236;SDS011;16266;50.866;4.398;2024-03-29T05:50:17;1999.90;;;999.90;;
29236;SDS011;16266;50.866;4.398;2024-03-29T05:52:43;1999.90;;;999.90;;
29236;SDS011;16266;50.866;4.398;2024-03-29T05:55:08;1999.90;;;999.90;;
29236;SDS011;16266;50.866;4.398;2024-03-29T05:57:34;1999.90;;;999.90;;
29236;SDS011;16266;50.866;4.398;2024-03-29T06:00:04;1999.90;;;999.90;;
29236;SDS011;16266;50.866;4.398;2024-03-29T06:02:30;1999.90;;;999.90;;
29236;SDS011;16266;50.866;4.398;2024-03-29T06:04:56;1999.90;;;999.90;;
29236;SDS011;16266;50.866;4.398;2024-03-29T06:07:22;1999.90;;;999.90;;
29236;SDS011;16266;50.866;4.398;2024-03-29T06:09:47;1999.90;;;999.90;;
29236;SDS011;16266;50.866;4.398;2024-03-29T06:12:13;1999.90;;;999.90;;
29236;SDS011;16266;50.866;4.398;2024-03-29T06:14:39;1999.90;;;999.90;;
29236;SDS011;16266;50.866;4.398;2024-03-29T06:17:23;1999.90;;;999.90;;
29236;SDS011;16266;50.866;4.398;2024-03-29T06:19:49;1999.90;;;999.90;;
29236;SDS011;16266;50.866;4.398;2024-03-29T06:22:24;1999.90;;;999.90;;
29236;SDS011;16266;50.866;4.398;2024-03-29T06:24:55;1999.90;;;999.90;;
29236;SDS011;16266;50.866;4.398;2024-03-29T06:27:27;1999.90;;;999.90;;
29236;SDS011;16266;50.866;4.398;2024-03-29T06:29:52;1999.90;;;999.90;;
29236;SDS011;16266;50.866;4.398;2024-03-29T06:32:18;1999.90;;;999.90;;
29236;SDS011;16266;50.866;4.398;2024-03-29T06:34:44;1999.90;;;999.90;;
29236;SDS011;16266;50.866;4.398;2024-03-29T06:37:10;1999.90;;;999.90;;
29236;SDS011;16266;50.866;4.398;2024-03-29T06:39:36;1999.90;;;999.90;;
29236;SDS011;16266;50.866;4.398;2024-03-29T06:42:02;1999.90;;;999.90;;
29236;SDS011;16266;50.866;4.398;2024-03-29T06:44:28;1999.90;;;999.90;;
29236;SDS011;16266;50.866;4.398;2024-03-29T06:46:53;1999.90;;;999.90;;
29236;SDS011;16266;50.866;4.398;2024-03-29T06:49:19;1999.90;;;999.90;;
29236;SDS011;16266;50.866;4.398;2024-03-29T06:51:45;1999.90;;;999.90;;
29236;SDS011;16266;50.866;4.398;2024-03-29T06:54:11;1999.90;;;999.90;;
29236;SDS011;16266;50.866;4.398;2024-03-29T06:56:37;1999.90;;;999.90;;
29236;SDS011;16266;50.866;4.398;2024-03-29T06:59:03;1999.90;;;999.90;;
29236;SDS011;16266;50.866;4.398;2024-03-29T07:01:29;1999.90;;;999.90;;
29236;SDS011;16266;50.866;4.398;2024-03-29T07:03:55;1999.90;;;999.90;;
29236;SDS011;16266;50.866;4.398;2024-03-29T07:06:21;1999.90;;;999.90;;
29236;SDS011;16266;50.866;4.398;2024-03-29T07:08:48;1999.90;;;999.90;;
29236;SDS011;16266;50.866;4.398;2024-03-29T07:11:13;1999.90;;;999.90;;
29236;SDS011;16266;50.866;4.398;2024-03-29T07:13:39;1999.90;;;999.90;;
29236;SDS011;16266;50.866;4.398;2024-03-29T07:16:05;1999.90;;;999.90;;
29236;SDS011;16266;50.866;4.398;2024-03-29T07:18:32;1999.90;;;999.90;;
29236;SDS011;16266;50.866;4.398;2024-03-29T07:20:58;1999.90;;;999.90;;
29236;SDS011;16266;50.866;4.398;2024-03-29T07:23:23;1999.90;;;999.90;;
29236;SDS011;16266;50.866;4.398;2024-03-29T07:25:59;1999.90;;;999.90;;
29236;SDS011;16266;50.866;4.398;2024-03-29T07:28:29;1999.90;;;999.90;;
29236;SDS011;16266;50.866;4.398;2024-03-29T07:30:55;1999.90;;;999.90;;
29236;SDS011;16266;50.866;4.398;2024-03-29T07:33:24;1999.90;;;999.90;;
29236;SDS011;16266;50.866;4.398;2024-03-29T07:35:53;1999.90;;;999.90;;
29236;SDS011;16266;50.866;4.398;2024-03-29T07:38:22;1999.90;;;999.90;;
29236;SDS011;16266;50.866;4.398;2024-03-29T07:40:48;1999.90;;;999.90;;
29236;SDS011;16266;50.866;4.398;2024-03-29T07:43:15;1999.90;;;999.90;;
29236;SDS011;16266;50.866;4.398;2024-03-29T07:45:41;1999.90;;;999.90;;
29236;SDS011;16266;50.866;4.398;2024-03-29T07:48:11;1527.00;;;775.95;;
29236;SDS011;16266;50.866;4.398;2024-03-29T07:50:39;107.55;;;103.38;;
29236;SDS011;16266;50.866;4.398;2024-03-29T07:53:05;105.93;;;101.93;;
29236;SDS011;16266;50.866;4.398;2024-03-29T07:55:30;115.20;;;110.72;;
29236;SDS011;16266;50.866;4.398;2024-03-29T07:57:56;176.50;;;169.70;;
29236;SDS011;16266;50.866;4.398;2024-03-29T08:00:23;161.55;;;154.85;;
29236;SDS011;16266;50.866;4.398;2024-03-29T08:02:50;156.02;;;150.05;;
29236;SDS011;16266;50.866;4.398;2024-03-29T08:05:16;148.18;;;142.48;;
29236;SDS011;16266;50.866;4.398;2024-03-29T08:07:42;110.00;;;105.65;;
29236;SDS011;16266;50.866;4.398;2024-03-29T08:10:08;107.45;;;103.32;;
29236;SDS011;16266;50.866;4.398;2024-03-29T08:12:34;120.55;;;115.97;;
29236;SDS011;16266;50.866;4.398;2024-03-29T08:15:02;165.00;;;158.18;;
29236;SDS011;16266;50.866;4.398;2024-03-29T08:17:28;180.50;;;173.50;;
29236;SDS011;16266;50.866;4.398;2024-03-29T08:19:54;199.43;;;191.73;;
29236;SDS011;16266;50.866;4.398;2024-03-29T08:22:20;202.32;;;194.43;;
29236;SDS011;16266;50.866;4.398;2024-03-29T08:24:46;235.77;;;226.52;;
29236;SDS011;16266;50.866;4.398;2024-03-29T08:27:11;220.20;;;211.65;;
29236;SDS011;16266;50.866;4.398;2024-03-29T08:29:37;211.55;;;203.27;;
29236;SDS011;16266;50.866;4.398;2024-03-29T08:32:03;220.27;;;211.63;;
29236;SDS011;16266;50.866;4.398;2024-03-29T08:34:31;232.98;;;223.82;;
29236;SDS011;16266;50.866;4.398;2024-03-29T08:37:02;148.45;;;142.40;;
29236;SDS011;16266;50.866;4.398;2024-03-29T08:39:29;355.42;;;341.23;;
29236;SDS011;16266;50.866;4.398;2024-03-29T08:41:55;185.05;;;177.70;;
29236;SDS011;16266;50.866;4.398;2024-03-29T08:44:21;364.58;;;349.23;;
29236;SDS011;16266;50.866;4.398;2024-03-29T08:46:46;140.27;;;134.90;;
29236;SDS011;16266;50.866;4.398;2024-03-29T08:49:12;98.82;;;95.13;;
29236;SDS011;16266;50.866;4.398;2024-03-29T08:51:38;85.10;;;81.93;;
29236;SDS011;16266;50.866;4.398;2024-03-29T08:54:03;238.20;;;229.07;;
29236;SDS011;16266;50.866;4.398;2024-03-29T08:56:33;283.40;;;272.38;;
29236;SDS011;16266;50.866;4.398;2024-03-29T08:59:02;321.60;;;308.90;;
29236;SDS011;16266;50.866;4.398;2024-03-29T09:01:32;241.93;;;232.60;;
29236;SDS011;16266;50.866;4.398;2024-03-29T09:03:58;249.40;;;239.85;;
29236;SDS011;16266;50.866;4.398;2024-03-29T09:06:24;111.00;;;106.80;;
29236;SDS011;16266;50.866;4.398;2024-03-29T09:08:50;47.13;;;45.33;;
29236;SDS011;16266;50.866;4.398;2024-03-29T09:11:16;77.35;;;74.47;;
29236;SDS011;16266;50.866;4.398;2024-03-29T09:13:41;80.78;;;77.78;;
29236;SDS011;16266;50.866;4.398;2024-03-29T09:16:07;68.70;;;66.10;;
29236;SDS011;16266;50.866;4.398;2024-03-29T09:18:33;54.15;;;52.15;;
29236;SDS011;16266;50.866;4.398;2024-03-29T09:20:59;67.10;;;64.55;;
29236;SDS011;16266;50.866;4.398;2024-03-29T09:23:25;49.08;;;47.35;;
29236;SDS011;16266;50.866;4.398;2024-03-29T09:25:53;42.30;;;40.80;;
29236;SDS011;16266;50.866;4.398;2024-03-29T09:28:22;48.25;;;46.47;;
29236;SDS011;16266;50.866;4.398;2024-03-29T09:30:49;49.30;;;47.55;;
29236;SDS011;16266;50.866;4.398;2024-03-29T09:33:15;44.10;;;42.58;;
29236;SDS011;16266;50.866;4.398;2024-03-29T09:35:41;44.17;;;42.60;;
29236;SDS011;16266;50.866;4.398;2024-03-29T09:38:06;42.72;;;41.13;;
29236;SDS011;16266;50.866;4.398;2024-03-29T09:40:32;28.15;;;27.15;;
29236;SDS011;16266;50.866;4.398;2024-03-29T09:43:01;31.35;;;30.35;;
29236;SDS011;16266;50.866;4.398;2024-03-29T09:45:30;34.10;;;32.92;;
29236;SDS011;16266;50.866;4.398;2024-03-29T09:48:04;28.15;;;27.23;;
29236;SDS011;16266;50.866;4.398;2024-03-29T09:53:00;24.02;;;23.23;;
29236;SDS011;16266;50.866;4.398;2024-03-29T09:55:27;25.70;;;24.88;;
29236;SDS011;16266;50.866;4.398;2024-03-29T09:57:53;42.30;;;40.80;;
29236;SDS011;16266;50.866;4.398;2024-03-29T10:00:19;45.67;;;44.08;;
29236;SDS011;16266;50.866;4.398;2024-03-29T10:02:45;23.42;;;22.65;;
29236;SDS011;16266;50.866;4.398;2024-03-29T10:05:14;20.50;;;19.83;;
29236;SDS011;16266;50.866;4.398;2024-03-29T10:07:41;18.77;;;18.17;;
29236;SDS011;16266;50.866;4.398;2024-03-29T10:10:10;20.05;;;19.35;;
29236;SDS011;16266;50.866;4.398;2024-03-29T10:12:36;16.40;;;15.88;;
29236;SDS011;16266;50.866;4.398;2024-03-29T10:15:03;18.20;;;17.55;;
29236;SDS011;16266;50.866;4.398;2024-03-29T10:17:39;16.27;;;15.68;;
29236;SDS011;16266;50.866;4.398;2024-03-29T10:20:10;15.95;;;15.45;;
29236;SDS011;16266;50.866;4.398;2024-03-29T10:22:45;16.63;;;15.93;;
29236;SDS011;16266;50.866;4.398;2024-03-29T10:25:14;15.35;;;14.85;;
29236;SDS011;16266;50.866;4.398;2024-03-29T10:27:40;14.18;;;13.70;;
29236;SDS011;16266;50.866;4.398;2024-03-29T10:30:07;15.73;;;15.10;;
29236;SDS011;16266;50.866;4.398;2024-03-29T10:32:37;15.80;;;15.10;;
29236;SDS011;16266;50.866;4.398;2024-03-29T10:35:05;16.98;;;16.17;;
29236;SDS011;16266;50.866;4.398;2024-03-29T10:37:31;16.30;;;15.80;;
29236;SDS011;16266;50.866;4.398;2024-03-29T10:40:00;16.88;;;16.27;;
29236;SDS011;16266;50.866;4.398;2024-03-29T10:42:29;15.52;;;14.98;;
29236;SDS011;16266;50.866;4.398;2024-03-29T10:44:58;16.98;;;16.38;;
29236;SDS011;16266;50.866;4.398;2024-03-29T10:47:25;17.02;;;16.20;;
29236;SDS011;16266;50.866;4.398;2024-03-29T10:49:51;18.70;;;17.90;;
29236;SDS011;16266;50.866;4.398;2024-03-29T10:52:22;17.00;;;16.42;;
29236;SDS011;16266;50.866;4.398;2024-03-29T10:54:49;17.70;;;17.10;;
29236;SDS011;16266;50.866;4.398;2024-03-29T10:57:19;15.13;;;14.52;;
29236;SDS011;16266;50.866;4.398;2024-03-29T11:05:17;16.23;;;15.63;;
29236;SDS011;16266;50.866;4.398;2024-03-29T11:07:44;16.42;;;15.88;;
29236;SDS011;16266;50.866;4.398;2024-03-29T11:10:11;16.45;;;15.95;;
29236;SDS011;16266;50.866;4.398;2024-03-29T11:15:44;13.97;;;13.47;;
29236;SDS011;16266;50.866;4.398;2024-03-29T11:18:10;13.40;;;13.00;;
29236;SDS011;16266;50.866;4.398;2024-03-29T11:20:37;14.50;;;14.00;;
29236;SDS011;16266;50.866;4.398;2024-03-29T11:23:09;14.68;;;14.18;;
29236;SDS011;16266;50.866;4.398;2024-03-29T11:25:43;13.35;;;12.95;;
29236;SDS011;16266;50.866;4.398;2024-03-29T11:28:14;13.95;;;13.45;;
29236;SDS011;16266;50.866;4.398;2024-03-29T11:30:49;13.13;;;12.73;;
29236;SDS011;16266;50.866;4.398;2024-03-29T11:35:58;13.15;;;12.75;;
29236;SDS011;16266;50.866;4.398;2024-03-29T11:38:34;12.95;;;12.55;;
29236;SDS011;16266;50.866;4.398;2024-03-29T11:41:01;14.13;;;13.73;;
29236;SDS011;16266;50.866;4.398;2024-03-29T11:43:35;13.35;;;12.95;;
29236;SDS011;16266;50.866;4.398;2024-03-29T11:46:02;13.48;;;12.98;;
29236;SDS011;16266;50.866;4.398;2024-03-29T11:48:32;14.13;;;13.73;;
29236;SDS011;16266;50.866;4.398;2024-03-29T11:50:59;16.33;;;15.70;;
29236;SDS011;16266;50.866;4.398;2024-03-29T11:53:25;14.65;;;14.15;;
29236;SDS011;16266;50.866;4.398;2024-03-29T11:55:53;15.93;;;15.43;;
29236;SDS011;16266;50.866;4.398;2024-03-29T11:58:20;14.43;;;13.93;;
29236;SDS011;16266;50.866;4.398;2024-03-29T12:00:46;14.63;;;14.13;;
29236;SDS011;16266;50.866;4.398;2024-03-29T12:03:14;14.18;;;13.68;;
29236;SDS011;16266;50.866;4.398;2024-03-29T12:05:45;14.15;;;13.65;;
29236;SDS011;16266;50.866;4.398;2024-03-29T12:08:12;14.60;;;14.10;;
29236;SDS011;16266;50.866;4.398;2024-03-29T12:10:38;13.43;;;12.93;;
29236;SDS011;16266;50.866;4.398;2024-03-29T12:13:07;14.30;;;13.80;;
29236;SDS011;16266;50.866;4.398;2024-03-29T12:15:34;13.07;;;12.68;;
29236;SDS011;16266;50.866;4.398;2024-03-29T12:18:00;13.52;;;13.13;;
29236;SDS011;16266;50.866;4.398;2024-03-29T12:20:33;13.38;;;12.90;;
29236;SDS011;16266;50.866;4.398;2024-03-29T12:23:04;12.82;;;12.43;;
29236;SDS011;16266;50.866;4.398;2024-03-29T12:25:31;12.73;;;12.32;;
29236;SDS011;16266;50.866;4.398;2024-03-29T12:27:59;13.20;;;12.80;;
29236;SDS011;16266;50.866;4.398;2024-03-29T12:30:25;15.20;;;14.70;;
29236;SDS011;16266;50.866;4.398;2024-03-29T12:33:05;14.85;;;14.35;;
29236;SDS011;16266;50.866;4.398;2024-03-29T12:35:33;16.02;;;14.75;;
29236;SDS011;16266;50.866;4.398;2024-03-29T12:38:00;18.40;;;17.80;;
29236;SDS011;16266;50.866;4.398;2024-03-29T12:40:30;15.45;;;14.95;;
29236;SDS011;16266;50.866;4.398;2024-03-29T12:43:04;17.02;;;16.50;;
29236;SDS011;16266;50.866;4.398;2024-03-29T12:45:31;15.38;;;14.88;;
29236;SDS011;16266;50.866;4.398;2024-03-29T12:47:57;15.60;;;15.10;;
29236;SDS011;16266;50.866;4.398;2024-03-29T12:50:27;17.63;;;17.02;;
29236;SDS011;16266;50.866;4.398;2024-03-29T12:53:00;15.60;;;15.00;;
29236;SDS011;16266;50.866;4.398;2024-03-29T12:55:31;15.38;;;14.88;;
29236;SDS011;16266;50.866;4.398;2024-03-29T12:58:00;15.13;;;14.63;;
29236;SDS011;16266;50.866;4.398;2024-03-29T13:00:29;15.00;;;14.48;;
29236;SDS011;16266;50.866;4.398;2024-03-29T13:02:58;15.13;;;14.52;;
29236;SDS011;16266;50.866;4.398;2024-03-29T13:05:24;13.70;;;13.20;;
29236;SDS011;16266;50.866;4.398;2024-03-29T13:07:50;14.57;;;14.07;;
29236;SDS011;16266;50.866;4.398;2024-03-29T13:10:16;14.90;;;14.20;;
29236;SDS011;16266;50.866;4.398;2024-03-29T13:12:46;13.95;;;13.40;;
29236;SDS011;16266;50.866;4.398;2024-03-29T13:15:24;13.30;;;12.90;;
29236;SDS011;16266;50.866;4.398;2024-03-29T13:17:55;13.07;;;12.68;;
29236;SDS011;16266;50.866;4.398;2024-03-29T13:22:48;13.90;;;13.50;;
29236;SDS011;16266;50.866;4.398;2024-03-29T13:25:18;16.30;;;15.80;;
29236;SDS011;16266;50.866;4.398;2024-03-29T13:27:45;17.25;;;16.65;;
29236;SDS011;16266;50.866;4.398;2024-03-29T13:30:19;17.25;;;16.65;;
29236;SDS011;16266;50.866;4.398;2024-03-29T13:32:49;16.25;;;15.75;;
29236;SDS011;16266;50.866;4.398;2024-03-29T13:35:15;17.50;;;16.90;;
29236;SDS011;16266;50.866;4.398;2024-03-29T13:37:44;16.77;;;16.25;;
29236;SDS011;16266;50.866;4.398;2024-03-29T13:40:17;17.20;;;16.60;;
29236;SDS011;16266;50.866;4.398;2024-03-29T13:42:44;17.08;;;16.48;;
29236;SDS011;16266;50.866;4.398;2024-03-29T13:45:10;16.38;;;15.88;;
29236;SDS011;16266;50.866;4.398;2024-03-29T13:47:36;16.95;;;16.42;;
29236;SDS011;16266;50.866;4.398;2024-03-29T13:50:05;17.38;;;16.77;;
29236;SDS011;16266;50.866;4.398;2024-03-29T13:52:31;16.30;;;15.18;;
29236;SDS011;16266;50.866;4.398;2024-03-29T13:54:57;16.88;;;16.38;;
29236;SDS011;16266;50.866;4.398;2024-03-29T13:57:23;16.95;;;16.42;;
29236;SDS011;16266;50.866;4.398;2024-03-29T13:59:49;16.45;;;15.95;;
29236;SDS011;16266;50.866;4.398;2024-03-29T14:02:18;16.77;;;16.08;;
29236;SDS011;16266;50.866;4.398;2024-03-29T14:04:45;17.48;;;16.88;;
29236;SDS011;16266;50.866;4.398;2024-03-29T14:07:11;16.65;;;16.15;;
29236;SDS011;16266;50.866;4.398;2024-03-29T14:09:43;15.15;;;14.65;;
29236;SDS011;16266;50.866;4.398;2024-03-29T14:12:10;16.33;;;15.82;;
29236;SDS011;16266;50.866;4.398;2024-03-29T14:14:38;15.82;;;15.32;;
29236;SDS011;16266;50.866;4.398;2024-03-29T14:17:04;15.38;;;14.88;;
29236;SDS011;16266;50.866;4.398;2024-03-29T14:19:32;15.45;;;14.95;;
29236;SDS011;16266;50.866;4.398;2024-03-29T14:21:59;16.92;;;16.33;;